createdAt,value
2018-10-16T21:16:16.815Z,101482.80
2018-10-16T21:18:44.364Z,101478.93
2018-10-16T21:21:12.867Z,101474.55
2018-10-16T21:23:40.460Z,101486.48
2018-10-16T21:26:08.004Z,101484.61
2018-10-16T21:28:35.684Z,101478.92
2018-10-16T21:31:03.425Z,101474.20
2018-10-16T21:33:31.332Z,101455.70
2018-10-16T21:35:58.900Z,101470.84
2018-10-16T21:38:26.469Z,101472.33
2018-10-16T21:40:54.157Z,101476.18
2018-10-16T21:43:21.777Z,101471.89
2018-10-16T21:45:49.504Z,101467.83
2018-10-16T21:48:17.234Z,101468.64
2018-10-16T21:50:44.948Z,101464.25
2018-10-16T21:53:12.705Z,101471.99
2018-10-16T21:55:40.213Z,101474.33
2018-10-16T21:58:08.072Z,101477.25
2018-10-16T22:00:41.298Z,101477.91
2018-10-16T22:03:08.900Z,101477.39
2018-10-16T22:05:36.608Z,101476.42
2018-10-16T22:08:04.576Z,101473.56
2018-10-16T22:10:32.471Z,101479.28
2018-10-16T22:13:00.322Z,101481.09
2018-10-16T22:15:28.152Z,101480.80
2018-10-16T22:17:56.569Z,101475.42
2018-10-16T22:20:24.595Z,101465.64
2018-10-16T22:22:52.387Z,101460.16
2018-10-16T22:25:20.297Z,101464.12
2018-10-16T22:27:48.007Z,101454.50
2018-10-16T22:32:55.521Z,101462.95
2018-10-16T22:35:23.662Z,101462.98
2018-10-16T22:37:52.841Z,101466.81
2018-10-16T22:40:21.300Z,101471.89
2018-10-16T22:42:50.044Z,101474.97
2018-10-16T22:48:01.112Z,101471.77
2018-10-16T22:50:28.865Z,101473.80
2018-10-16T22:52:56.548Z,101474.17
2018-10-16T22:55:24.564Z,101476.23
2018-10-16T22:57:52.221Z,101477.09
2018-10-16T23:00:20.688Z,101487.37
2018-10-16T23:02:48.603Z,101486.95
2018-10-16T23:05:18.407Z,101486.11
2018-10-16T23:07:50.656Z,101474.98
2018-10-16T23:10:19.329Z,101483.84
2018-10-16T23:12:51.742Z,101492.16
2018-10-16T23:15:20.516Z,101488.17
2018-10-16T23:17:48.341Z,101490.54
2018-10-16T23:20:16.276Z,101487.63
2018-10-16T23:22:44.824Z,101489.16
2018-10-16T23:25:12.761Z,101484.25
2018-10-16T23:27:41.579Z,101485.32
2018-10-16T23:30:09.448Z,101490.20
2018-10-16T23:32:37.550Z,101487.55
2018-10-16T23:35:12.682Z,101488.27
2018-10-16T23:37:43.746Z,101481.59
2018-10-16T23:40:11.364Z,101491.38
2018-10-16T23:42:39.267Z,101489.35
2018-10-16T23:45:07.012Z,101487.34
2018-10-16T23:47:34.639Z,101493.05
2018-10-16T23:50:02.646Z,101485.53
2018-10-16T23:52:31.420Z,101493.43
2018-10-16T23:54:59.375Z,101490.73
2018-10-16T23:57:27.522Z,101492.27
2018-10-16T23:59:55.426Z,101486.53
